createdAt,value
2019-04-16T00:02:48.476Z,8.80
2019-04-16T00:05:58.915Z,8.90
2019-04-16T00:08:38.782Z,8.70
2019-04-16T00:11:16.304Z,8.50
2019-04-16T00:14:08.413Z,8.50
2019-04-16T00:16:41.336Z,8.50
2019-04-16T00:19:10.835Z,8.50
2019-04-16T00:21:57.247Z,8.50
2019-04-16T00:24:33.050Z,8.50
2019-04-16T00:27:03.425Z,8.40
2019-04-16T00:29:33.852Z,8.30
2019-04-16T00:32:11.835Z,8.40
2019-04-16T00:34:44.464Z,8.30
2019-04-16T00:37:14.326Z,8.30
2019-04-16T00:39:44.720Z,8.30
2019-04-16T00:42:15.174Z,8.20
2019-04-16T00:44:45.575Z,8.30
2019-04-16T00:47:15.957Z,8.40
2019-04-16T00:49:46.306Z,8.40
2019-04-16T00:52:16.689Z,8.20
2019-04-16T00:54:47.054Z,8.10
2019-04-16T00:57:18.171Z,8.00
2019-04-16T00:59:49.064Z,8.10
2019-04-16T01:02:19.442Z,8.10
2019-04-16T01:04:49.860Z,8.00
2019-04-16T01:07:20.229Z,7.90
2019-04-16T01:09:50.626Z,7.90
2019-04-16T01:12:21.038Z,7.90
2019-04-16T01:14:51.398Z,7.80
2019-04-16T01:17:21.778Z,7.70
2019-04-16T01:19:52.143Z,7.60
2019-04-16T01:22:22.546Z,7.50
2019-04-16T01:24:52.962Z,7.60
2019-04-16T01:27:32.004Z,7.50
2019-04-16T01:30:05.082Z,7.50
2019-04-16T01:32:46.457Z,7.70
2019-04-16T01:35:33.669Z,7.70
2019-04-16T01:38:28.051Z,7.60
2019-04-16T01:41:00.860Z,7.70
2019-04-16T01:43:31.237Z,7.50
2019-04-16T01:46:02.447Z,7.40
2019-04-16T01:48:33.312Z,7.20
2019-04-16T01:51:03.663Z,7.30
2019-04-16T01:53:34.062Z,7.30
2019-04-16T01:56:04.418Z,7.20
2019-04-16T01:58:34.837Z,7.20
2019-04-16T02:01:07.921Z,7.30
2019-04-16T02:03:37.382Z,7.30
2019-04-16T02:06:07.838Z,7.30
2019-04-16T02:08:38.206Z,7.30
2019-04-16T02:11:10.596Z,7.20
2019-04-16T02:13:45.795Z,7.10
2019-04-16T02:16:12.802Z,6.90
2019-04-16T02:18:43.198Z,6.80
2019-04-16T02:21:13.597Z,7.00
2019-04-16T02:23:45.361Z,6.90
2019-04-16T02:26:16.029Z,6.90
2019-04-16T02:28:46.386Z,6.80
2019-04-16T02:31:16.787Z,6.80
2019-04-16T02:33:47.165Z,6.70
2019-04-16T02:36:17.642Z,6.90
2019-04-16T02:38:53.374Z,6.90
2019-04-16T02:41:23.222Z,6.60
2019-04-16T02:43:52.115Z,6.60
2019-04-16T02:46:22.625Z,6.60
2019-04-16T02:48:52.989Z,6.70
2019-04-16T02:51:57.700Z,6.60
2019-04-16T02:54:34.402Z,6.70
2019-04-16T02:57:26.764Z,6.60
2019-04-16T02:59:57.153Z,6.50
2019-04-16T03:02:43.869Z,6.60
2019-04-16T03:05:33.198Z,6.60
2019-04-16T03:08:04.614Z,6.60
2019-04-16T03:10:35.739Z,6.50
2019-04-16T03:13:06.110Z,6.60
2019-04-16T03:15:55.443Z,6.60
2019-04-16T03:18:31.477Z,6.50
2019-04-16T03:21:01.917Z,6.40
2019-04-16T03:23:36.663Z,6.40
2019-04-16T03:26:04.421Z,6.50
2019-04-16T03:28:34.777Z,6.30
2019-04-16T03:31:08.889Z,6.30
2019-04-16T03:33:37.244Z,6.30
2019-04-16T03:36:07.618Z,6.20
2019-04-16T03:38:41.891Z,6.30
2019-04-16T03:41:10.122Z,6.30
2019-04-16T03:43:40.477Z,6.10
2019-04-16T03:46:12.725Z,6.10
2019-04-16T03:48:42.938Z,6.10
2019-04-16T03:51:13.321Z,6.00
2019-04-16T03:53:46.508Z,6.00
2019-04-16T03:56:15.813Z,5.90
2019-04-16T03:58:46.182Z,5.90
2019-04-16T04:01:16.586Z,5.80
2019-04-16T04:03:46.958Z,6.00
2019-04-16T04:06:17.334Z,5.90
2019-04-16T04:08:48.963Z,5.80
2019-04-16T04:11:19.737Z,5.90
2019-04-16T04:13:50.951Z,6.00
2019-04-16T04:16:21.582Z,5.80
2019-04-16T04:18:51.957Z,5.60
2019-04-16T04:21:22.732Z,5.60
2019-04-16T04:23:53.184Z,5.50
2019-04-16T04:26:23.566Z,5.70
2019-04-16T04:28:54.056Z,5.80
2019-04-16T04:31:24.438Z,5.70
2019-04-16T04:33:54.879Z,5.70
2019-04-16T04:36:26.985Z,5.90
2019-04-16T04:38:57.419Z,6.00
2019-04-16T04:41:27.821Z,5.90
2019-04-16T04:44:03.850Z,5.90
2019-04-16T04:46:30.330Z,5.90
2019-04-16T04:49:00.710Z,5.60
2019-04-16T04:51:31.094Z,5.50
2019-04-16T04:54:01.461Z,5.70
2019-04-16T04:56:31.918Z,5.70
2019-04-16T04:59:02.547Z,5.70
2019-04-16T05:01:34.399Z,5.70
2019-04-16T05:04:26.742Z,5.60
2019-04-16T05:06:59.845Z,5.50
2019-04-16T05:09:35.588Z,5.70
2019-04-16T05:12:02.288Z,5.70
2019-04-16T05:14:32.753Z,5.70
2019-04-16T05:17:03.640Z,5.80
2019-04-16T05:19:35.309Z,5.70
2019-04-16T05:22:05.752Z,5.80
2019-04-16T05:24:37.661Z,5.80
2019-04-16T05:27:09.289Z,5.80
2019-04-16T05:29:39.932Z,5.90
2019-04-16T05:32:10.326Z,6.10
2019-04-16T05:34:40.706Z,6.20
2019-04-16T05:37:11.082Z,6.30
2019-04-16T05:39:41.470Z,6.30
2019-04-16T05:42:11.874Z,6.30
2019-04-16T05:44:42.342Z,6.30
2019-04-16T05:47:16.795Z,6.30
2019-04-16T05:49:44.919Z,6.30
2019-04-16T05:52:15.260Z,6.30
2019-04-16T05:55:04.594Z,6.50
2019-04-16T05:57:36.934Z,6.60
2019-04-16T06:00:12.470Z,6.70
2019-04-16T06:02:43.373Z,6.80
2019-04-16T06:05:13.824Z,6.90
2019-04-16T06:07:44.188Z,7.00
2019-04-16T06:10:17.813Z,7.00
2019-04-16T06:13:09.441Z,7.10
2019-04-16T06:15:56.915Z,7.30
2019-04-16T06:18:49.474Z,7.50
2019-04-16T06:21:37.938Z,7.70
2019-04-16T06:24:17.038Z,7.90
2019-04-16T06:27:15.537Z,8.10
2019-04-16T06:30:03.747Z,8.30
2019-04-16T06:32:39.759Z,8.60
2019-04-16T06:35:27.750Z,8.90
2019-04-16T06:38:04.785Z,9.20
2019-04-16T06:40:41.349Z,9.60
2019-04-16T06:43:25.189Z,9.70
2019-04-16T06:46:05.518Z,9.90
2019-04-16T06:48:42.509Z,10.10
2019-04-16T06:51:31.755Z,10.00
2019-04-16T06:54:31.883Z,10.10
2019-04-16T06:57:12.849Z,10.40
2019-04-16T07:00:02.336Z,10.50
2019-04-16T07:03:02.092Z,10.70
2019-04-16T07:05:39.760Z,10.70
2019-04-16T07:08:37.523Z,11.00
2019-04-16T07:11:01.921Z,11.00
2019-04-16T07:13:32.440Z,11.20
2019-04-16T07:16:02.809Z,11.20
2019-04-16T07:18:35.607Z,11.30
2019-04-16T07:21:05.469Z,11.50
2019-04-16T07:23:35.985Z,11.60
2019-04-16T07:26:06.465Z,11.70
2019-04-16T07:28:42.862Z,12.00
2019-04-16T07:31:44.793Z,12.20
2019-04-16T07:34:36.146Z,12.10
2019-04-16T07:37:32.871Z,12.10
2019-04-16T07:40:25.607Z,12.30
2019-04-16T07:43:23.277Z,12.40
2019-04-16T07:46:12.609Z,12.40
2019-04-16T07:48:56.295Z,12.60
2019-04-16T07:51:54.898Z,13.10
2019-04-16T07:54:45.893Z,13.30
2019-04-16T07:57:16.281Z,13.50
2019-04-16T07:59:46.718Z,13.70
2019-04-16T08:02:17.686Z,14.10
2019-04-16T08:04:49.246Z,14.20
2019-04-16T08:07:20.484Z,14.10
2019-04-16T08:09:51.704Z,14.30
2019-04-16T08:12:30.003Z,14.40
2019-04-16T08:14:54.167Z,14.40
2019-04-16T08:17:24.553Z,14.60
2019-04-16T08:19:55.594Z,14.60
2019-04-16T08:22:26.593Z,14.80
2019-04-16T08:25:03.255Z,15.00
2019-04-16T08:27:31.892Z,15.20
2019-04-16T08:30:04.047Z,15.50
2019-04-16T08:32:34.370Z,15.80
2019-04-16T08:35:05.437Z,16.00
2019-04-16T08:37:48.371Z,16.30
2019-04-16T08:40:09.095Z,16.40
2019-04-16T08:42:44.854Z,16.50
2019-04-16T08:45:13.020Z,16.60
2019-04-16T08:47:44.973Z,16.90
2019-04-16T08:50:15.541Z,17.20
2019-04-16T08:52:45.893Z,17.50
2019-04-16T08:55:16.307Z,17.80
2019-04-16T08:57:47.018Z,17.70
2019-04-16T09:00:17.826Z,18.00
2019-04-16T09:02:48.189Z,18.30
2019-04-16T09:05:18.582Z,18.40
2019-04-16T09:07:50.935Z,18.80
2019-04-16T09:10:40.104Z,19.30
2019-04-16T09:13:15.245Z,19.70
2019-04-16T09:15:44.243Z,20.10
2019-04-16T09:18:32.141Z,20.30
2019-04-16T09:21:02.515Z,20.30
2019-04-16T09:23:32.902Z,20.50
2019-04-16T09:26:23.664Z,20.50
2019-04-16T09:29:13.471Z,20.60
2019-04-16T09:31:59.717Z,20.70
2019-04-16T09:35:09.343Z,20.10
2019-04-16T09:37:44.469Z,19.90
2019-04-16T09:40:32.013Z,19.70
2019-04-16T09:43:15.993Z,19.20
2019-04-16T09:45:37.172Z,19.30
2019-04-16T09:48:07.633Z,19.40
2019-04-16T09:50:42.981Z,19.50
2019-04-16T09:53:10.080Z,19.40
2019-04-16T09:55:40.450Z,19.30
2019-04-16T09:58:17.518Z,19.40
2019-04-16T10:00:53.101Z,19.40
2019-04-16T10:03:42.459Z,19.30
2019-04-16T10:06:12.818Z,19.40
2019-04-16T10:08:45.096Z,19.60
2019-04-16T10:11:18.430Z,19.70
2019-04-16T10:13:47.359Z,19.60
2019-04-16T10:16:19.630Z,19.70
2019-04-16T10:18:50.165Z,19.30
2019-04-16T10:21:20.541Z,19.40
2019-04-16T10:24:12.983Z,19.40
2019-04-16T10:26:42.160Z,19.50
2019-04-16T10:29:15.205Z,19.70
2019-04-16T10:31:45.964Z,19.80
2019-04-16T10:34:16.365Z,19.70
2019-04-16T10:36:46.774Z,19.40
2019-04-16T10:39:25.515Z,19.50
2019-04-16T10:42:01.567Z,19.60
2019-04-16T10:44:51.349Z,19.80
2019-04-16T10:47:29.754Z,19.60
2019-04-16T10:50:12.205Z,19.30
2019-04-16T10:53:04.471Z,19.00
2019-04-16T10:55:52.763Z,18.70
2019-04-16T10:58:48.609Z,18.50
2019-04-16T11:01:37.932Z,18.60
2019-04-16T11:04:23.273Z,18.60
2019-04-16T11:06:54.382Z,18.90
2019-04-16T11:09:24.856Z,19.10
2019-04-16T11:11:55.334Z,19.30
2019-04-16T11:14:25.885Z,19.30
2019-04-16T11:16:56.407Z,19.30
2019-04-16T11:19:26.789Z,19.20
2019-04-16T11:21:59.934Z,19.30
2019-04-16T11:24:29.258Z,19.20
2019-04-16T11:26:59.690Z,19.20
2019-04-16T11:29:30.116Z,19.00
2019-04-16T11:32:00.724Z,19.00
2019-04-16T11:34:31.201Z,19.10
2019-04-16T11:37:07.344Z,19.20
2019-04-16T11:39:33.646Z,19.20
2019-04-16T11:42:04.317Z,19.10
2019-04-16T11:44:34.694Z,19.20
2019-04-16T11:47:06.938Z,19.20
2019-04-16T11:49:37.392Z,19.10
2019-04-16T11:52:07.844Z,18.80
2019-04-16T11:54:38.281Z,18.70
2019-04-16T11:57:08.725Z,18.50
2019-04-16T11:59:39.086Z,18.20
2019-04-16T12:02:23.278Z,18.20
2019-04-16T12:05:10.921Z,18.20
2019-04-16T12:07:59.293Z,18.20
2019-04-16T12:10:59.180Z,17.90
2019-04-16T12:13:40.143Z,17.90
2019-04-16T12:16:28.470Z,17.80
2019-04-16T12:19:17.922Z,17.70
2019-04-16T12:21:59.577Z,17.60
2019-04-16T12:24:47.791Z,17.70
2019-04-16T12:27:36.092Z,17.20
2019-04-16T12:30:25.962Z,16.90
2019-04-16T12:33:21.213Z,16.50
2019-04-16T12:36:16.037Z,16.50
2019-04-16T12:38:57.309Z,16.80
2019-04-16T12:41:42.250Z,17.00
2019-04-16T12:44:47.007Z,17.00
2019-04-16T12:47:39.422Z,17.00
2019-04-16T12:50:21.795Z,17.10
2019-04-16T12:53:02.687Z,17.20
2019-04-16T12:55:47.359Z,17.30
2019-04-16T12:58:35.326Z,17.60
2019-04-16T13:01:19.552Z,17.90
2019-04-16T13:04:05.872Z,18.10
2019-04-16T13:06:40.529Z,18.30
2019-04-16T13:09:32.243Z,18.40
2019-04-16T13:12:09.418Z,18.60
2019-04-16T13:15:00.777Z,18.70
2019-04-16T13:17:54.483Z,18.90
2019-04-16T13:20:46.857Z,19.00
2019-04-16T13:23:39.210Z,19.10
2019-04-16T13:26:27.098Z,19.20
2019-04-16T13:28:57.938Z,19.30
2019-04-16T13:31:28.329Z,19.30
2019-04-16T13:33:58.761Z,19.40
2019-04-16T13:36:29.186Z,19.50
2019-04-16T13:39:08.070Z,19.70
2019-04-16T13:41:39.235Z,19.80
2019-04-16T13:44:10.628Z,19.80
2019-04-16T13:46:41.098Z,19.90
2019-04-16T13:49:25.660Z,20.00
2019-04-16T13:51:57.568Z,19.90
2019-04-16T13:54:52.951Z,19.90
2019-04-16T13:57:23.740Z,19.80
2019-04-16T13:59:55.078Z,19.60
2019-04-16T14:02:47.917Z,19.70
2019-04-16T14:05:19.334Z,19.60
2019-04-16T14:07:49.715Z,19.70
2019-04-16T14:10:20.214Z,19.70
2019-04-16T14:12:50.581Z,19.70
2019-04-16T14:15:31.887Z,19.70
2019-04-16T14:17:59.078Z,19.70
2019-04-16T14:20:26.969Z,19.70
2019-04-16T14:22:57.327Z,19.60
2019-04-16T14:25:27.729Z,19.60
2019-04-16T14:28:02.103Z,19.60
2019-04-16T14:30:35.907Z,19.50
2019-04-16T14:33:07.544Z,19.30
2019-04-16T14:35:40.373Z,19.20
2019-04-16T14:38:12.137Z,19.00
2019-04-16T14:40:43.103Z,18.80
2019-04-16T14:43:15.197Z,18.60
2019-04-16T14:45:58.046Z,18.50
2019-04-16T14:48:23.101Z,18.40
2019-04-16T14:50:53.527Z,18.30
2019-04-16T14:53:39.384Z,18.30
2019-04-16T14:56:17.542Z,18.30
2019-04-16T14:59:10.967Z,18.20
2019-04-16T15:02:15.614Z,18.00
2019-04-16T15:05:09.936Z,17.90
2019-04-16T15:07:57.847Z,17.70
2019-04-16T15:10:53.229Z,17.70
2019-04-16T15:13:31.278Z,17.30
2019-04-16T15:16:31.521Z,16.90
2019-04-16T15:19:26.192Z,16.50
2019-04-16T15:22:14.872Z,16.30
2019-04-16T15:24:58.284Z,16.20
2019-04-16T15:27:39.905Z,16.00
2019-04-16T15:30:29.398Z,15.80
2019-04-16T15:33:18.773Z,15.50
2019-04-16T15:36:10.081Z,15.30
2019-04-16T15:39:02.652Z,15.00
2019-04-16T15:41:44.693Z,15.00
2019-04-16T15:44:25.568Z,14.90
2019-04-16T15:47:13.345Z,14.80
2019-04-16T15:49:59.065Z,14.90
2019-04-16T15:52:57.298Z,14.80
2019-04-16T15:55:45.222Z,14.80
2019-04-16T15:58:23.849Z,14.70
2019-04-16T16:01:12.030Z,14.50
2019-04-16T16:04:07.188Z,14.60
2019-04-16T16:06:43.938Z,14.60
2019-04-16T16:09:19.123Z,14.50
2019-04-16T16:12:11.458Z,14.60
2019-04-16T16:14:41.858Z,14.40
2019-04-16T16:17:12.232Z,14.40
2019-04-16T16:19:42.700Z,14.50
2019-04-16T16:22:13.103Z,14.60
2019-04-16T16:24:43.544Z,14.50
2019-04-16T16:27:13.958Z,14.50
2019-04-16T16:29:44.377Z,14.60
2019-04-16T16:32:14.787Z,14.70
2019-04-16T16:34:45.247Z,14.80
2019-04-16T16:37:15.651Z,14.90
2019-04-16T16:39:46.070Z,15.00
2019-04-16T16:42:16.475Z,15.00
2019-04-16T16:44:46.915Z,15.10
2019-04-16T16:47:48.574Z,15.00
2019-04-16T16:50:19.119Z,15.10
2019-04-16T16:53:06.840Z,15.10
2019-04-16T16:55:49.258Z,15.20
2019-04-16T16:58:41.418Z,15.20
2019-04-16T17:01:36.598Z,15.20
2019-04-16T17:04:11.125Z,15.20
2019-04-16T17:06:41.598Z,15.20
2019-04-16T17:09:22.781Z,15.00
2019-04-16T17:11:55.806Z,15.10
2019-04-16T17:14:25.348Z,15.10
2019-04-16T17:17:11.235Z,15.00
2019-04-16T17:19:28.039Z,15.00
2019-04-16T17:22:01.298Z,15.00
2019-04-16T17:24:31.713Z,14.90
2019-04-16T17:27:02.155Z,14.80
2019-04-16T17:29:32.628Z,14.70
2019-04-16T17:32:03.186Z,14.60
2019-04-16T17:34:38.613Z,14.60
2019-04-16T17:37:05.755Z,14.50
2019-04-16T17:39:46.406Z,14.40
2019-04-16T17:42:19.197Z,14.40
2019-04-16T17:45:07.731Z,14.40
2019-04-16T17:47:57.280Z,14.20
2019-04-16T17:50:43.523Z,14.10
2019-04-16T17:53:31.758Z,14.10
2019-04-16T17:56:24.082Z,14.00
2019-04-16T17:59:07.349Z,13.80
2019-04-16T18:01:59.515Z,13.70
2019-04-16T18:04:58.015Z,13.70
2019-04-16T18:07:47.742Z,13.80
2019-04-16T18:10:43.103Z,13.80
2019-04-16T18:13:17.978Z,13.90
2019-04-16T18:15:56.248Z,13.90
2019-04-16T18:18:36.725Z,13.90
2019-04-16T18:21:31.487Z,13.80
2019-04-16T18:24:26.877Z,13.60
2019-04-16T18:27:28.518Z,13.50
2019-04-16T18:30:16.547Z,13.40
2019-04-16T18:33:06.944Z,13.50
2019-04-16T18:36:01.336Z,13.50
2019-04-16T18:38:45.041Z,13.40
2019-04-16T18:41:23.291Z,13.30
2019-04-16T18:44:15.728Z,13.30
2019-04-16T18:47:10.883Z,13.30
2019-04-16T18:49:40.758Z,13.50
2019-04-16T18:52:11.133Z,13.60
2019-04-16T18:54:41.555Z,13.70
2019-04-16T18:57:11.970Z,13.80
2019-04-16T18:59:42.407Z,13.80
2019-04-16T19:02:12.798Z,13.60
2019-04-16T19:04:43.219Z,13.30
2019-04-16T19:07:13.630Z,13.40
2019-04-16T19:09:44.083Z,13.50
2019-04-16T19:12:14.493Z,13.60
2019-04-16T19:14:44.947Z,13.60
2019-04-16T19:17:16.808Z,13.60
2019-04-16T19:19:48.656Z,13.60
2019-04-16T19:22:19.281Z,13.60
2019-04-16T19:24:49.734Z,13.60
2019-04-16T19:27:20.149Z,13.60
2019-04-16T19:29:50.589Z,13.70
2019-04-16T19:32:21.009Z,13.60
2019-04-16T19:34:51.494Z,13.70
2019-04-16T19:37:21.902Z,13.70
2019-04-16T19:39:52.337Z,13.60
2019-04-16T19:42:25.726Z,13.60
2019-04-16T19:44:55.181Z,13.60
2019-04-16T19:47:26.612Z,13.60
2019-04-16T19:49:57.774Z,13.70
2019-04-16T19:52:28.171Z,13.60
2019-04-16T19:54:58.607Z,13.50
2019-04-16T19:57:29.337Z,13.50
2019-04-16T19:59:59.819Z,13.50
2019-04-16T20:02:33.326Z,13.40
2019-04-16T20:05:02.573Z,13.40
2019-04-16T20:07:33.653Z,13.30
2019-04-16T20:10:07.047Z,13.40
2019-04-16T20:12:37.465Z,13.50
2019-04-16T20:15:09.591Z,13.50
2019-04-16T20:17:40.226Z,13.40
2019-04-16T20:20:10.754Z,13.40
2019-04-16T20:22:41.200Z,13.30
2019-04-16T20:25:11.717Z,13.30
2019-04-16T20:27:42.167Z,13.40
2019-04-16T20:30:14.361Z,13.40
2019-04-16T20:32:44.838Z,13.50
2019-04-16T20:35:18.858Z,13.40
2019-04-16T20:37:50.378Z,13.40
2019-04-16T20:40:20.782Z,13.40
2019-04-16T20:42:52.242Z,13.30
2019-04-16T20:45:23.873Z,13.30
2019-04-16T20:47:54.988Z,13.40
2019-04-16T20:50:25.982Z,13.40
2019-04-16T20:52:56.500Z,13.30
2019-04-16T20:55:26.936Z,13.30
2019-04-16T20:58:00.412Z,13.30
2019-04-16T21:00:34.800Z,13.30
2019-04-16T21:03:21.368Z,13.30
2019-04-16T21:05:57.076Z,13.20
2019-04-16T21:08:17.110Z,13.20
2019-04-16T21:10:46.458Z,13.10
2019-04-16T21:13:16.902Z,13.00
2019-04-16T21:15:47.361Z,13.00
2019-04-16T21:18:17.897Z,13.10
2019-04-16T21:20:50.905Z,13.10
2019-04-16T21:23:20.444Z,13.10
2019-04-16T21:25:50.995Z,13.00
2019-04-16T21:28:37.918Z,12.90
2019-04-16T21:31:14.513Z,12.80
2019-04-16T21:34:02.481Z,12.80
2019-04-16T21:36:43.745Z,12.80
2019-04-16T21:39:21.702Z,12.70
2019-04-16T21:41:52.127Z,12.70
2019-04-16T21:44:22.609Z,12.70
2019-04-16T21:46:56.946Z,12.80
2019-04-16T21:49:37.775Z,12.70
2019-04-16T21:52:09.481Z,12.60
2019-04-16T21:54:40.041Z,12.50
2019-04-16T21:57:13.346Z,12.50
2019-04-16T21:59:42.797Z,12.60
2019-04-16T22:02:31.271Z,12.60
2019-04-16T22:05:01.800Z,12.70
2019-04-16T22:07:32.213Z,12.60
2019-04-16T22:10:02.619Z,12.70
2019-04-16T22:12:33.030Z,12.60
2019-04-16T22:15:05.133Z,12.60
2019-04-16T22:17:36.667Z,12.70
2019-04-16T22:20:07.710Z,12.50
2019-04-16T22:22:38.118Z,12.60
2019-04-16T22:25:08.504Z,12.50
2019-04-16T22:27:39.644Z,12.60
2019-04-16T22:30:11.158Z,12.60
2019-04-16T22:32:41.536Z,12.70
2019-04-16T22:35:12.030Z,12.60
2019-04-16T22:37:42.520Z,12.60
2019-04-16T22:40:30.497Z,12.60
2019-04-16T22:43:18.783Z,12.50
2019-04-16T22:45:54.469Z,12.40
2019-04-16T22:48:24.870Z,12.40
2019-04-16T22:50:55.273Z,12.50
2019-04-16T22:53:25.683Z,12.50
2019-04-16T22:55:57.642Z,12.50
2019-04-16T22:58:47.074Z,12.50
2019-04-16T23:01:18.409Z,12.40
2019-04-16T23:03:49.731Z,12.50
2019-04-16T23:06:21.052Z,12.40
2019-04-16T23:08:51.455Z,12.40
2019-04-16T23:11:23.760Z,12.40
2019-04-16T23:13:54.112Z,12.40
2019-04-16T23:16:24.501Z,12.40
2019-04-16T23:18:54.896Z,12.40
2019-04-16T23:21:25.320Z,12.30
2019-04-16T23:23:55.719Z,12.30
2019-04-16T23:26:26.115Z,12.30
2019-04-16T23:28:56.495Z,12.30
2019-04-16T23:31:26.910Z,12.20
2019-04-16T23:33:57.481Z,12.20
2019-04-16T23:36:27.994Z,12.30
2019-04-16T23:39:03.328Z,12.20
2019-04-16T23:41:30.548Z,12.10
2019-04-16T23:44:18.504Z,12.20
2019-04-16T23:47:10.211Z,12.30
2019-04-16T23:49:45.008Z,12.20
2019-04-16T23:52:20.906Z,12.20
2019-04-16T23:54:57.206Z,12.20
2019-04-16T23:57:36.235Z,12.30
